sensor_id;sensor_type;location;lat;lon;timestamp;P1;durP1;ratioP1;P2;durP2;ratioP2
66179;SDS011;52986;44.028;20.466;2022-11-12T00:01:15;89.13;;;43.95;;
66179;SDS011;52986;44.028;20.466;2022-11-12T00:03:40;89.38;;;45.55;;
66179;SDS011;52986;44.028;20.466;2022-11-12T00:06:06;90.97;;;44.97;;
66179;SDS011;52986;44.028;20.466;2022-11-12T00:08:31;96.75;;;47.08;;
66179;SDS011;52986;44.028;20.466;2022-11-12T00:10:57;92.10;;;46.08;;
66179;SDS011;52986;44.028;20.466;2022-11-12T00:13:22;94.60;;;46.13;;
66179;SDS011;52986;44.028;20.466;2022-11-12T00:15:47;118.80;;;56.33;;
66179;SDS011;52986;44.028;20.466;2022-11-12T00:18:13;99.97;;;52.08;;
66179;SDS011;52986;44.028;20.466;2022-11-12T00:20:38;104.68;;;52.58;;
66179;SDS011;52986;44.028;20.466;2022-11-12T00:23:04;93.30;;;45.25;;
66179;SDS011;52986;44.028;20.466;2022-11-12T00:25:29;93.13;;;46.10;;
66179;SDS011;52986;44.028;20.466;2022-11-12T00:28:02;89.05;;;43.30;;
66179;SDS011;52986;44.028;20.466;2022-11-12T00:30:31;89.85;;;41.25;;
66179;SDS011;52986;44.028;20.466;2022-11-12T00:33:02;88.20;;;42.90;;
66179;SDS011;52986;44.028;20.466;2022-11-12T00:35:28;82.60;;;41.80;;
66179;SDS011;52986;44.028;20.466;2022-11-12T00:37:56;88.22;;;43.05;;
66179;SDS011;52986;44.028;20.466;2022-11-12T00:40:22;83.38;;;41.25;;
66179;SDS011;52986;44.028;20.466;2022-11-12T00:42:49;85.75;;;43.40;;
66179;SDS011;52986;44.028;20.466;2022-11-12T00:45:18;88.75;;;45.45;;
66179;SDS011;52986;44.028;20.466;2022-11-12T00:47:44;90.47;;;46.35;;
66179;SDS011;52986;44.028;20.466;2022-11-12T00:50:09;87.70;;;44.20;;
66179;SDS011;52986;44.028;20.466;2022-11-12T00:52:35;94.45;;;47.50;;
66179;SDS011;52986;44.028;20.466;2022-11-12T00:55:00;95.72;;;47.60;;
66179;SDS011;52986;44.028;20.466;2022-11-12T00:57:26;99.47;;;49.17;;
66179;SDS011;52986;44.028;20.466;2022-11-12T00:59:51;96.05;;;48.78;;
66179;SDS011;52986;44.028;20.466;2022-11-12T01:02:17;94.80;;;48.42;;
66179;SDS011;52986;44.028;20.466;2022-11-12T01:04:44;92.20;;;45.58;;
66179;SDS011;52986;44.028;20.466;2022-11-12T01:07:09;99.18;;;47.78;;
66179;SDS011;52986;44.028;20.466;2022-11-12T01:09:34;93.33;;;46.57;;
66179;SDS011;52986;44.028;20.466;2022-11-12T01:12:00;93.53;;;45.63;;
66179;SDS011;52986;44.028;20.466;2022-11-12T01:14:25;88.75;;;45.42;;
66179;SDS011;52986;44.028;20.466;2022-11-12T01:16:50;92.05;;;45.17;;
66179;SDS011;52986;44.028;20.466;2022-11-12T01:19:16;83.47;;;41.03;;
66179;SDS011;52986;44.028;20.466;2022-11-12T01:21:42;74.25;;;38.70;;
66179;SDS011;52986;44.028;20.466;2022-11-12T01:24:08;79.10;;;39.50;;
66179;SDS011;52986;44.028;20.466;2022-11-12T01:26:35;78.45;;;37.83;;
66179;SDS011;52986;44.028;20.466;2022-11-12T01:29:01;78.05;;;38.20;;
66179;SDS011;52986;44.028;20.466;2022-11-12T01:31:27;73.47;;;35.53;;
66179;SDS011;52986;44.028;20.466;2022-11-12T01:33:55;69.10;;;33.83;;
66179;SDS011;52986;44.028;20.466;2022-11-12T01:36:22;63.10;;;32.15;;
66179;SDS011;52986;44.028;20.466;2022-11-12T01:38:49;62.75;;;30.40;;
66179;SDS011;52986;44.028;20.466;2022-11-12T01:41:24;60.85;;;29.15;;
66179;SDS011;52986;44.028;20.466;2022-11-12T01:46:50;57.85;;;27.77;;
66179;SDS011;52986;44.028;20.466;2022-11-12T01:49:23;55.17;;;26.80;;
66179;SDS011;52986;44.028;20.466;2022-11-12T01:51:53;57.60;;;27.05;;
66179;SDS011;52986;44.028;20.466;2022-11-12T01:54:21;54.58;;;25.55;;
66179;SDS011;52986;44.028;20.466;2022-11-12T01:56:47;54.35;;;27.45;;
66179;SDS011;52986;44.028;20.466;2022-11-12T01:59:36;53.22;;;27.13;;
66179;SDS011;52986;44.028;20.466;2022-11-12T02:02:04;48.42;;;24.10;;
66179;SDS011;52986;44.028;20.466;2022-11-12T02:04:30;50.40;;;23.70;;
66179;SDS011;52986;44.028;20.466;2022-11-12T02:06:57;49.00;;;23.05;;
66179;SDS011;52986;44.028;20.466;2022-11-12T02:09:24;53.35;;;23.85;;
66179;SDS011;52986;44.028;20.466;2022-11-12T02:11:50;46.67;;;22.65;;
66179;SDS011;52986;44.028;20.466;2022-11-12T02:14:15;45.57;;;21.00;;
66179;SDS011;52986;44.028;20.466;2022-11-12T02:16:42;43.70;;;20.13;;
66179;SDS011;52986;44.028;20.466;2022-11-12T02:19:11;42.33;;;19.75;;
66179;SDS011;52986;44.028;20.466;2022-11-12T02:21:39;44.90;;;21.65;;
66179;SDS011;52986;44.028;20.466;2022-11-12T02:24:50;39.72;;;18.85;;
66179;SDS011;52986;44.028;20.466;2022-11-12T02:26:52;41.30;;;20.10;;
66179;SDS011;52986;44.028;20.466;2022-11-12T02:29:19;41.60;;;20.10;;
66179;SDS011;52986;44.028;20.466;2022-11-12T02:31:45;44.40;;;21.30;;
66179;SDS011;52986;44.028;20.466;2022-11-12T02:34:11;41.60;;;19.25;;
66179;SDS011;52986;44.028;20.466;2022-11-12T02:36:36;36.67;;;17.38;;
66179;SDS011;52986;44.028;20.466;2022-11-12T02:39:02;41.28;;;19.75;;
66179;SDS011;52986;44.028;20.466;2022-11-12T02:41:28;44.88;;;21.13;;
66179;SDS011;52986;44.028;20.466;2022-11-12T02:43:53;66.28;;;33.00;;
66179;SDS011;52986;44.028;20.466;2022-11-12T02:46:18;68.70;;;33.30;;
66179;SDS011;52986;44.028;20.466;2022-11-12T02:48:44;65.88;;;32.20;;
66179;SDS011;52986;44.028;20.466;2022-11-12T02:51:09;67.10;;;31.95;;
66179;SDS011;52986;44.028;20.466;2022-11-12T02:53:35;67.32;;;31.95;;
66179;SDS011;52986;44.028;20.466;2022-11-12T02:56:00;63.88;;;32.65;;
66179;SDS011;52986;44.028;20.466;2022-11-12T02:58:26;64.57;;;31.38;;
66179;SDS011;52986;44.028;20.466;2022-11-12T03:00:53;65.10;;;32.50;;
66179;SDS011;52986;44.028;20.466;2022-11-12T03:03:19;56.42;;;28.88;;
66179;SDS011;52986;44.028;20.466;2022-11-12T03:05:44;46.85;;;23.40;;
66179;SDS011;52986;44.028;20.466;2022-11-12T03:08:10;48.63;;;24.85;;
66179;SDS011;52986;44.028;20.466;2022-11-12T03:10:37;49.40;;;23.75;;
66179;SDS011;52986;44.028;20.466;2022-11-12T03:13:03;49.50;;;24.17;;
66179;SDS011;52986;44.028;20.466;2022-11-12T03:15:29;59.88;;;28.40;;
66179;SDS011;52986;44.028;20.466;2022-11-12T03:17:58;57.75;;;27.77;;
66179;SDS011;52986;44.028;20.466;2022-11-12T03:20:24;60.47;;;29.02;;
66179;SDS011;52986;44.028;20.466;2022-11-12T03:22:58;59.53;;;29.55;;
66179;SDS011;52986;44.028;20.466;2022-11-12T03:25:25;56.97;;;28.50;;
66179;SDS011;52986;44.028;20.466;2022-11-12T03:27:58;60.28;;;29.65;;
66179;SDS011;52986;44.028;20.466;2022-11-12T03:30:26;59.10;;;29.30;;
66179;SDS011;52986;44.028;20.466;2022-11-12T03:32:52;57.45;;;27.08;;
66179;SDS011;52986;44.028;20.466;2022-11-12T03:35:18;54.53;;;25.35;;
66179;SDS011;52986;44.028;20.466;2022-11-12T03:37:43;47.00;;;21.48;;
66179;SDS011;52986;44.028;20.466;2022-11-12T03:40:09;41.83;;;19.38;;
66179;SDS011;52986;44.028;20.466;2022-11-12T03:42:34;49.42;;;20.45;;
66179;SDS011;52986;44.028;20.466;2022-11-12T03:45:00;48.38;;;21.42;;
66179;SDS011;52986;44.028;20.466;2022-11-12T03:47:25;46.65;;;22.52;;
66179;SDS011;52986;44.028;20.466;2022-11-12T03:49:51;43.83;;;21.40;;
66179;SDS011;52986;44.028;20.466;2022-11-12T03:52:16;51.65;;;25.10;;
66179;SDS011;52986;44.028;20.466;2022-11-12T03:54:41;49.28;;;24.80;;
66179;SDS011;52986;44.028;20.466;2022-11-12T03:57:07;47.87;;;23.33;;
66179;SDS011;52986;44.028;20.466;2022-11-12T03:59:32;50.03;;;23.90;;
66179;SDS011;52986;44.028;20.466;2022-11-12T04:01:57;45.85;;;21.38;;
66179;SDS011;52986;44.028;20.466;2022-11-12T04:04:23;47.90;;;22.03;;
66179;SDS011;52986;44.028;20.466;2022-11-12T04:07:08;43.17;;;21.23;;
66179;SDS011;52986;44.028;20.466;2022-11-12T04:09:52;45.30;;;21.02;;
66179;SDS011;52986;44.028;20.466;2022-11-12T04:12:17;45.40;;;21.05;;
66179;SDS011;52986;44.028;20.466;2022-11-12T04:15:01;45.78;;;22.50;;
66179;SDS011;52986;44.028;20.466;2022-11-12T04:17:26;45.92;;;21.73;;
66179;SDS011;52986;44.028;20.466;2022-11-12T04:20:10;45.40;;;20.83;;
66179;SDS011;52986;44.028;20.466;2022-11-12T04:22:54;40.88;;;19.80;;
66179;SDS011;52986;44.028;20.466;2022-11-12T04:25:20;41.60;;;19.17;;
66179;SDS011;52986;44.028;20.466;2022-11-12T04:28:04;42.45;;;20.27;;
66179;SDS011;52986;44.028;20.466;2022-11-12T04:30:29;41.30;;;19.53;;
66179;SDS011;52986;44.028;20.466;2022-11-12T04:32:54;41.70;;;18.53;;
66179;SDS011;52986;44.028;20.466;2022-11-12T04:35:21;43.05;;;19.10;;
66179;SDS011;52986;44.028;20.466;2022-11-12T04:37:47;38.40;;;19.08;;
66179;SDS011;52986;44.028;20.466;2022-11-12T04:40:15;40.03;;;18.52;;
66179;SDS011;52986;44.028;20.466;2022-11-12T04:43:04;37.15;;;17.73;;
66179;SDS011;52986;44.028;20.466;2022-11-12T04:46:03;37.03;;;17.20;;
66179;SDS011;52986;44.028;20.466;2022-11-12T04:48:29;38.47;;;17.55;;
66179;SDS011;52986;44.028;20.466;2022-11-12T04:50:55;37.05;;;17.27;;
66179;SDS011;52986;44.028;20.466;2022-11-12T04:53:23;35.00;;;16.48;;
66179;SDS011;52986;44.028;20.466;2022-11-12T04:55:50;37.03;;;16.80;;
66179;SDS011;52986;44.028;20.466;2022-11-12T04:58:16;38.60;;;16.98;;
66179;SDS011;52986;44.028;20.466;2022-11-12T05:00:42;39.00;;;17.48;;
66179;SDS011;52986;44.028;20.466;2022-11-12T05:03:07;37.55;;;17.90;;
66179;SDS011;52986;44.028;20.466;2022-11-12T05:05:32;35.60;;;16.63;;
66179;SDS011;52986;44.028;20.466;2022-11-12T05:07:58;42.47;;;18.80;;
66179;SDS011;52986;44.028;20.466;2022-11-12T05:10:24;45.40;;;20.17;;
66179;SDS011;52986;44.028;20.466;2022-11-12T05:12:50;47.63;;;21.80;;
66179;SDS011;52986;44.028;20.466;2022-11-12T05:15:15;48.25;;;21.40;;
66179;SDS011;52986;44.028;20.466;2022-11-12T05:17:41;43.28;;;20.45;;
66179;SDS011;52986;44.028;20.466;2022-11-12T05:20:08;47.50;;;20.70;;
66179;SDS011;52986;44.028;20.466;2022-11-12T05:22:35;43.30;;;20.63;;
66179;SDS011;52986;44.028;20.466;2022-11-12T05:25:01;45.13;;;20.70;;
66179;SDS011;52986;44.028;20.466;2022-11-12T05:27:26;43.63;;;20.35;;
66179;SDS011;52986;44.028;20.466;2022-11-12T05:29:52;43.45;;;20.10;;
66179;SDS011;52986;44.028;20.466;2022-11-12T05:32:17;46.67;;;21.73;;
66179;SDS011;52986;44.028;20.466;2022-11-12T05:34:43;48.97;;;20.83;;
66179;SDS011;52986;44.028;20.466;2022-11-12T05:37:09;50.35;;;22.92;;
66179;SDS011;52986;44.028;20.466;2022-11-12T05:39:36;54.05;;;24.23;;
66179;SDS011;52986;44.028;20.466;2022-11-12T05:42:01;51.92;;;23.42;;
66179;SDS011;52986;44.028;20.466;2022-11-12T05:44:27;57.00;;;25.52;;
66179;SDS011;52986;44.028;20.466;2022-11-12T05:46:52;67.43;;;31.70;;
66179;SDS011;52986;44.028;20.466;2022-11-12T05:49:18;68.75;;;31.33;;
66179;SDS011;52986;44.028;20.466;2022-11-12T05:51:43;60.15;;;27.35;;
66179;SDS011;52986;44.028;20.466;2022-11-12T05:54:09;62.28;;;27.75;;
66179;SDS011;52986;44.028;20.466;2022-11-12T05:56:35;61.45;;;26.90;;
66179;SDS011;52986;44.028;20.466;2022-11-12T05:59:01;57.22;;;25.55;;
66179;SDS011;52986;44.028;20.466;2022-11-12T06:01:28;55.40;;;25.95;;
66179;SDS011;52986;44.028;20.466;2022-11-12T06:03:54;53.50;;;25.20;;
66179;SDS011;52986;44.028;20.466;2022-11-12T06:06:20;53.38;;;25.25;;
66179;SDS011;52986;44.028;20.466;2022-11-12T06:08:45;52.30;;;25.55;;
66179;SDS011;52986;44.028;20.466;2022-11-12T06:11:11;42.33;;;20.33;;
66179;SDS011;52986;44.028;20.466;2022-11-12T06:13:37;39.78;;;18.27;;
66179;SDS011;52986;44.028;20.466;2022-11-12T06:16:02;41.08;;;19.95;;
66179;SDS011;52986;44.028;20.466;2022-11-12T06:18:27;42.75;;;18.85;;
66179;SDS011;52986;44.028;20.466;2022-11-12T06:20:53;40.90;;;18.80;;
66179;SDS011;52986;44.028;20.466;2022-11-12T06:23:37;46.33;;;21.85;;
66179;SDS011;52986;44.028;20.466;2022-11-12T06:26:02;41.83;;;19.90;;
66179;SDS011;52986;44.028;20.466;2022-11-12T06:28:28;39.25;;;18.00;;
66179;SDS011;52986;44.028;20.466;2022-11-12T06:30:53;35.75;;;17.00;;
66179;SDS011;52986;44.028;20.466;2022-11-12T06:33:20;40.28;;;18.55;;
66179;SDS011;52986;44.028;20.466;2022-11-12T06:35:45;43.97;;;19.67;;
66179;SDS011;52986;44.028;20.466;2022-11-12T06:38:11;41.65;;;19.02;;
66179;SDS011;52986;44.028;20.466;2022-11-12T06:40:36;43.38;;;21.65;;
66179;SDS011;52986;44.028;20.466;2022-11-12T06:43:02;41.15;;;19.23;;
66179;SDS011;52986;44.028;20.466;2022-11-12T06:45:27;37.58;;;16.63;;
66179;SDS011;52986;44.028;20.466;2022-11-12T06:47:56;32.53;;;15.68;;
66179;SDS011;52986;44.028;20.466;2022-11-12T06:50:22;32.08;;;14.50;;
66179;SDS011;52986;44.028;20.466;2022-11-12T06:52:47;32.67;;;15.00;;
66179;SDS011;52986;44.028;20.466;2022-11-12T06:55:13;36.70;;;16.42;;
66179;SDS011;52986;44.028;20.466;2022-11-12T06:57:38;33.13;;;14.98;;
66179;SDS011;52986;44.028;20.466;2022-11-12T07:00:04;34.90;;;15.05;;
66179;SDS011;52986;44.028;20.466;2022-11-12T07:02:30;32.53;;;15.07;;
66179;SDS011;52986;44.028;20.466;2022-11-12T07:04:55;28.83;;;13.32;;
66179;SDS011;52986;44.028;20.466;2022-11-12T07:07:20;33.97;;;14.40;;
66179;SDS011;52986;44.028;20.466;2022-11-12T07:09:46;30.23;;;13.75;;
66179;SDS011;52986;44.028;20.466;2022-11-12T07:12:11;34.45;;;14.70;;
66179;SDS011;52986;44.028;20.466;2022-11-12T07:14:37;34.70;;;15.68;;
66179;SDS011;52986;44.028;20.466;2022-11-12T07:17:02;32.45;;;14.00;;
66179;SDS011;52986;44.028;20.466;2022-11-12T07:19:27;33.33;;;14.02;;
66179;SDS011;52986;44.028;20.466;2022-11-12T07:21:53;33.03;;;15.37;;
66179;SDS011;52986;44.028;20.466;2022-11-12T07:24:18;38.00;;;18.33;;
66179;SDS011;52986;44.028;20.466;2022-11-12T07:26:43;35.60;;;16.65;;
66179;SDS011;52986;44.028;20.466;2022-11-12T07:29:09;37.42;;;17.02;;
66179;SDS011;52986;44.028;20.466;2022-11-12T07:31:34;43.38;;;18.90;;
66179;SDS011;52986;44.028;20.466;2022-11-12T07:33:59;48.33;;;21.00;;
66179;SDS011;52986;44.028;20.466;2022-11-12T07:36:25;42.10;;;19.20;;
66179;SDS011;52986;44.028;20.466;2022-11-12T07:38:51;38.55;;;18.63;;
66179;SDS011;52986;44.028;20.466;2022-11-12T07:41:22;37.70;;;17.67;;
66179;SDS011;52986;44.028;20.466;2022-11-12T07:43:49;36.00;;;17.80;;
66179;SDS011;52986;44.028;20.466;2022-11-12T07:46:17;37.70;;;18.23;;
66179;SDS011;52986;44.028;20.466;2022-11-12T07:48:44;36.05;;;16.70;;
66179;SDS011;52986;44.028;20.466;2022-11-12T07:53:40;32.35;;;15.57;;
66179;SDS011;52986;44.028;20.466;2022-11-12T07:56:06;35.58;;;18.38;;
66179;SDS011;52986;44.028;20.466;2022-11-12T07:58:32;37.08;;;16.02;;
66179;SDS011;52986;44.028;20.466;2022-11-12T08:01:07;34.72;;;16.38;;
66179;SDS011;52986;44.028;20.466;2022-11-12T08:03:32;35.92;;;16.23;;
66179;SDS011;52986;44.028;20.466;2022-11-12T08:06:01;32.67;;;16.30;;
66179;SDS011;52986;44.028;20.466;2022-11-12T08:08:27;37.85;;;17.30;;
66179;SDS011;52986;44.028;20.466;2022-11-12T08:10:53;34.55;;;16.52;;
66179;SDS011;52986;44.028;20.466;2022-11-12T08:13:22;39.33;;;18.77;;
66179;SDS011;52986;44.028;20.466;2022-11-12T08:15:48;34.20;;;16.58;;
66179;SDS011;52986;44.028;20.466;2022-11-12T08:18:13;34.78;;;15.88;;
66179;SDS011;52986;44.028;20.466;2022-11-12T08:20:39;32.83;;;15.15;;
66179;SDS011;52986;44.028;20.466;2022-11-12T08:23:04;32.00;;;14.73;;
66179;SDS011;52986;44.028;20.466;2022-11-12T08:25:30;33.15;;;16.35;;
66179;SDS011;52986;44.028;20.466;2022-11-12T08:27:56;35.33;;;16.50;;
66179;SDS011;52986;44.028;20.466;2022-11-12T08:30:22;35.67;;;16.58;;
66179;SDS011;52986;44.028;20.466;2022-11-12T08:32:53;36.65;;;17.73;;
66179;SDS011;52986;44.028;20.466;2022-11-12T08:35:19;46.42;;;21.35;;
66179;SDS011;52986;44.028;20.466;2022-11-12T08:37:45;40.43;;;20.27;;
66179;SDS011;52986;44.028;20.466;2022-11-12T08:40:10;42.25;;;19.67;;
66179;SDS011;52986;44.028;20.466;2022-11-12T08:42:36;40.20;;;20.50;;
66179;SDS011;52986;44.028;20.466;2022-11-12T08:45:01;43.53;;;20.48;;
66179;SDS011;52986;44.028;20.466;2022-11-12T08:47:27;42.35;;;20.80;;
66179;SDS011;52986;44.028;20.466;2022-11-12T08:49:52;44.95;;;21.40;;
66179;SDS011;52986;44.028;20.466;2022-11-12T08:52:18;44.60;;;21.63;;
66179;SDS011;52986;44.028;20.466;2022-11-12T08:54:43;41.57;;;20.10;;
66179;SDS011;52986;44.028;20.466;2022-11-12T08:57:08;43.58;;;19.92;;
66179;SDS011;52986;44.028;20.466;2022-11-12T08:59:34;38.73;;;16.90;;
66179;SDS011;52986;44.028;20.466;2022-11-12T09:01:59;41.17;;;19.05;;
66179;SDS011;52986;44.028;20.466;2022-11-12T09:04:24;36.17;;;16.70;;
66179;SDS011;52986;44.028;20.466;2022-11-12T09:06:50;38.58;;;18.52;;
66179;SDS011;52986;44.028;20.466;2022-11-12T09:09:15;37.78;;;18.88;;
66179;SDS011;52986;44.028;20.466;2022-11-12T09:11:41;39.47;;;19.23;;
66179;SDS011;52986;44.028;20.466;2022-11-12T09:14:06;46.03;;;21.33;;
66179;SDS011;52986;44.028;20.466;2022-11-12T09:16:31;45.25;;;21.10;;
66179;SDS011;52986;44.028;20.466;2022-11-12T09:18:57;43.45;;;21.08;;
66179;SDS011;52986;44.028;20.466;2022-11-12T09:21:22;45.35;;;23.35;;
66179;SDS011;52986;44.028;20.466;2022-11-12T09:23:48;36.45;;;18.27;;
66179;SDS011;52986;44.028;20.466;2022-11-12T09:26:14;37.80;;;17.95;;
66179;SDS011;52986;44.028;20.466;2022-11-12T09:28:39;33.83;;;16.38;;
66179;SDS011;52986;44.028;20.466;2022-11-12T09:31:05;30.02;;;14.55;;
66179;SDS011;52986;44.028;20.466;2022-11-12T09:33:31;31.65;;;15.77;;
66179;SDS011;52986;44.028;20.466;2022-11-12T09:36:00;33.72;;;16.15;;
66179;SDS011;52986;44.028;20.466;2022-11-12T09:38:27;33.80;;;14.75;;
66179;SDS011;52986;44.028;20.466;2022-11-12T09:41:00;32.95;;;15.02;;
66179;SDS011;52986;44.028;20.466;2022-11-12T09:43:46;29.55;;;13.85;;
66179;SDS011;52986;44.028;20.466;2022-11-12T09:48:47;32.33;;;15.35;;
66179;SDS011;52986;44.028;20.466;2022-11-12T09:51:21;31.67;;;14.80;;
66179;SDS011;52986;44.028;20.466;2022-11-12T09:53:56;31.73;;;15.65;;
66179;SDS011;52986;44.028;20.466;2022-11-12T09:56:24;33.90;;;16.55;;
66179;SDS011;52986;44.028;20.466;2022-11-12T09:58:50;30.80;;;15.38;;
66179;SDS011;52986;44.028;20.466;2022-11-12T10:01:23;30.45;;;14.70;;
66179;SDS011;52986;44.028;20.466;2022-11-12T10:04:39;27.90;;;14.10;;
66179;SDS011;52986;44.028;20.466;2022-11-12T10:07:02;30.33;;;15.35;;
66179;SDS011;52986;44.028;20.466;2022-11-12T10:09:43;35.25;;;16.10;;
66179;SDS011;52986;44.028;20.466;2022-11-12T10:12:33;27.75;;;13.10;;
66179;SDS011;52986;44.028;20.466;2022-11-12T10:18:37;26.48;;;12.77;;
66179;SDS011;52986;44.028;20.466;2022-11-12T10:21:34;30.45;;;13.30;;
66179;SDS011;52986;44.028;20.466;2022-11-12T10:24:07;21.55;;;10.13;;
66179;SDS011;52986;44.028;20.466;2022-11-12T10:26:34;20.95;;;10.50;;
66179;SDS011;52986;44.028;20.466;2022-11-12T10:29:26;26.58;;;12.50;;
66179;SDS011;52986;44.028;20.466;2022-11-12T10:31:54;31.38;;;12.63;;
66179;SDS011;52986;44.028;20.466;2022-11-12T10:34:20;25.17;;;12.13;;
66179;SDS011;52986;44.028;20.466;2022-11-12T10:36:49;23.33;;;11.18;;
66179;SDS011;52986;44.028;20.466;2022-11-12T10:39:32;18.50;;;8.07;;
66179;SDS011;52986;44.028;20.466;2022-11-12T10:44:32;15.77;;;7.63;;
66179;SDS011;52986;44.028;20.466;2022-11-12T10:47:40;13.90;;;6.80;;
66179;SDS011;52986;44.028;20.466;2022-11-12T10:52:27;15.57;;;7.45;;
66179;SDS011;52986;44.028;20.466;2022-11-12T10:55:39;15.15;;;7.30;;
66179;SDS011;52986;44.028;20.466;2022-11-12T10:57:45;17.88;;;8.27;;
66179;SDS011;52986;44.028;20.466;2022-11-12T11:00:24;18.10;;;8.98;;
66179;SDS011;52986;44.028;20.466;2022-11-12T11:02:50;16.52;;;7.78;;
66179;SDS011;52986;44.028;20.466;2022-11-12T11:05:28;15.23;;;7.25;;
66179;SDS011;52986;44.028;20.466;2022-11-12T11:07:56;17.67;;;8.10;;
66179;SDS011;52986;44.028;20.466;2022-11-12T11:10:23;16.08;;;8.13;;
66179;SDS011;52986;44.028;20.466;2022-11-12T11:18:25;16.30;;;8.02;;
66179;SDS011;52986;44.028;20.466;2022-11-12T11:20:55;16.33;;;7.88;;
66179;SDS011;52986;44.028;20.466;2022-11-12T11:26:00;16.63;;;7.75;;
66179;SDS011;52986;44.028;20.466;2022-11-12T11:29:07;15.35;;;7.10;;
66179;SDS011;52986;44.028;20.466;2022-11-12T11:31:51;14.90;;;6.50;;
66179;SDS011;52986;44.028;20.466;2022-11-12T11:37:00;15.38;;;6.65;;
66179;SDS011;52986;44.028;20.466;2022-11-12T11:45:14;14.70;;;6.35;;
66179;SDS011;52986;44.028;20.466;2022-11-12T11:53:26;13.88;;;6.85;;
66179;SDS011;52986;44.028;20.466;2022-11-12T11:56:01;14.38;;;6.95;;
66179;SDS011;52986;44.028;20.466;2022-11-12T12:01:36;16.40;;;7.60;;
66179;SDS011;52986;44.028;20.466;2022-11-12T12:17:35;16.10;;;8.05;;
66179;SDS011;52986;44.028;20.466;2022-11-12T12:20:13;17.63;;;8.15;;
66179;SDS011;52986;44.028;20.466;2022-11-12T12:25:36;15.55;;;7.78;;
66179;SDS011;52986;44.028;20.466;2022-11-12T12:31:08;13.93;;;6.82;;
66179;SDS011;52986;44.028;20.466;2022-11-12T12:33:42;15.23;;;7.13;;
66179;SDS011;52986;44.028;20.466;2022-11-12T12:36:19;13.32;;;6.13;;
66179;SDS011;52986;44.028;20.466;2022-11-12T12:42:14;12.88;;;5.88;;
66179;SDS011;52986;44.028;20.466;2022-11-12T12:44:50;13.73;;;6.07;;
66179;SDS011;52986;44.028;20.466;2022-11-12T12:47:27;13.25;;;6.03;;
66179;SDS011;52986;44.028;20.466;2022-11-12T12:49:54;13.57;;;5.88;;
66179;SDS011;52986;44.028;20.466;2022-11-12T12:52:22;13.20;;;5.45;;
66179;SDS011;52986;44.028;20.466;2022-11-12T13:02:58;11.10;;;4.57;;
66179;SDS011;52986;44.028;20.466;2022-11-12T13:08:01;12.60;;;5.85;;
66179;SDS011;52986;44.028;20.466;2022-11-12T13:15:49;18.98;;;6.50;;
66179;SDS011;52986;44.028;20.466;2022-11-12T13:26:44;16.27;;;6.75;;
66179;SDS011;52986;44.028;20.466;2022-11-12T13:32:54;14.88;;;7.22;;
66179;SDS011;52986;44.028;20.466;2022-11-12T13:37:40;18.83;;;7.85;;
66179;SDS011;52986;44.028;20.466;2022-11-12T13:40:18;18.52;;;8.77;;
66179;SDS011;52986;44.028;20.466;2022-11-12T13:45:13;16.92;;;7.20;;
66179;SDS011;52986;44.028;20.466;2022-11-12T13:47:39;16.63;;;6.97;;
66179;SDS011;52986;44.028;20.466;2022-11-12T13:50:06;16.67;;;7.35;;
66179;SDS011;52986;44.028;20.466;2022-11-12T13:52:33;15.43;;;6.80;;
66179;SDS011;52986;44.028;20.466;2022-11-12T13:55:03;17.85;;;8.10;;
66179;SDS011;52986;44.028;20.466;2022-11-12T13:57:31;17.27;;;7.00;;
66179;SDS011;52986;44.028;20.466;2022-11-12T14:00:07;15.70;;;7.05;;
66179;SDS011;52986;44.028;20.466;2022-11-12T14:05:18;16.02;;;7.15;;
66179;SDS011;52986;44.028;20.466;2022-11-12T14:07:53;14.35;;;6.38;;
66179;SDS011;52986;44.028;20.466;2022-11-12T14:20:46;12.30;;;5.70;;
66179;SDS011;52986;44.028;20.466;2022-11-12T14:23:13;11.95;;;5.68;;
66179;SDS011;52986;44.028;20.466;2022-11-12T14:25:47;13.70;;;6.55;;
66179;SDS011;52986;44.028;20.466;2022-11-12T14:28:27;15.88;;;7.65;;
66179;SDS011;52986;44.028;20.466;2022-11-12T14:31:01;14.20;;;6.22;;
66179;SDS011;52986;44.028;20.466;2022-11-12T14:33:28;15.25;;;7.57;;
66179;SDS011;52986;44.028;20.466;2022-11-12T14:36:02;17.95;;;7.57;;
66179;SDS011;52986;44.028;20.466;2022-11-12T14:38:37;14.00;;;6.43;;
66179;SDS011;52986;44.028;20.466;2022-11-12T14:41:09;15.38;;;6.47;;
66179;SDS011;52986;44.028;20.466;2022-11-12T14:43:43;14.68;;;6.50;;
66179;SDS011;52986;44.028;20.466;2022-11-12T14:46:20;13.82;;;5.90;;
66179;SDS011;52986;44.028;20.466;2022-11-12T14:49:31;12.05;;;5.55;;
66179;SDS011;52986;44.028;20.466;2022-11-12T14:51:45;12.52;;;5.15;;
66179;SDS011;52986;44.028;20.466;2022-11-12T14:54:15;11.90;;;5.18;;
66179;SDS011;52986;44.028;20.466;2022-11-12T14:56:54;9.95;;;4.53;;
66179;SDS011;52986;44.028;20.466;2022-11-12T14:59:21;12.35;;;4.95;;
66179;SDS011;52986;44.028;20.466;2022-11-12T15:02:10;11.73;;;5.00;;
66179;SDS011;52986;44.028;20.466;2022-11-12T15:04:44;12.20;;;5.50;;
66179;SDS011;52986;44.028;20.466;2022-11-12T15:07:22;16.67;;;7.22;;
66179;SDS011;52986;44.028;20.466;2022-11-12T15:09:51;11.05;;;4.95;;
66179;SDS011;52986;44.028;20.466;2022-11-12T15:12:20;12.32;;;4.68;;
66179;SDS011;52986;44.028;20.466;2022-11-12T15:14:52;12.48;;;5.50;;
66179;SDS011;52986;44.028;20.466;2022-11-12T15:17:30;14.88;;;5.22;;
66179;SDS011;52986;44.028;20.466;2022-11-12T15:20:04;11.93;;;5.47;;
66179;SDS011;52986;44.028;20.466;2022-11-12T15:22:36;11.13;;;4.95;;
66179;SDS011;52986;44.028;20.466;2022-11-12T15:31:01;12.00;;;5.32;;
66179;SDS011;52986;44.028;20.466;2022-11-12T15:33:31;10.95;;;4.80;;
66179;SDS011;52986;44.028;20.466;2022-11-12T15:35:57;11.43;;;4.97;;
66179;SDS011;52986;44.028;20.466;2022-11-12T15:38:26;11.13;;;4.80;;
66179;SDS011;52986;44.028;20.466;2022-11-12T15:41:00;11.25;;;4.80;;
66179;SDS011;52986;44.028;20.466;2022-11-12T15:43:27;10.18;;;4.35;;
66179;SDS011;52986;44.028;20.466;2022-11-12T15:45:54;12.82;;;5.30;;
66179;SDS011;52986;44.028;20.466;2022-11-12T15:48:20;11.15;;;4.97;;
66179;SDS011;52986;44.028;20.466;2022-11-12T15:50:46;11.85;;;4.80;;
66179;SDS011;52986;44.028;20.466;2022-11-12T15:53:12;12.25;;;4.88;;
66179;SDS011;52986;44.028;20.466;2022-11-12T15:55:38;12.77;;;5.25;;
66179;SDS011;52986;44.028;20.466;2022-11-12T15:58:14;19.33;;;8.35;;
66179;SDS011;52986;44.028;20.466;2022-11-12T16:00:43;22.52;;;9.57;;
66179;SDS011;52986;44.028;20.466;2022-11-12T16:03:12;14.25;;;6.32;;
66179;SDS011;52986;44.028;20.466;2022-11-12T16:05:40;13.43;;;5.75;;
66179;SDS011;52986;44.028;20.466;2022-11-12T16:08:07;15.20;;;6.40;;
66179;SDS011;52986;44.028;20.466;2022-11-12T16:10:33;25.13;;;9.20;;
66179;SDS011;52986;44.028;20.466;2022-11-12T16:12:59;20.35;;;7.68;;
66179;SDS011;52986;44.028;20.466;2022-11-12T16:15:25;20.02;;;8.43;;
66179;SDS011;52986;44.028;20.466;2022-11-12T16:17:51;17.52;;;6.90;;